sensor_id;sensor_type;location;lat;lon;timestamp;pressure;altitude;pressure_sealevel;temperature;humidity
59055;BME280;44845;51.444;7.460;2023-02-13T00:00:32;101847.25;;;8.28;75.44
59055;BME280;44845;51.444;7.460;2023-02-13T00:02:58;101840.22;;;8.27;75.58
59055;BME280;44845;51.444;7.460;2023-02-13T00:05:23;101845.47;;;8.27;75.53
59055;BME280;44845;51.444;7.460;2023-02-13T00:07:49;101848.09;;;8.28;75.58
59055;BME280;44845;51.444;7.460;2023-02-13T00:10:14;101841.13;;;8.27;75.63
59055;BME280;44845;51.444;7.460;2023-02-13T00:12:42;101840.19;;;8.25;75.50
59055;BME280;44845;51.444;7.460;2023-02-13T00:15:07;101841.91;;;8.25;75.30
59055;BME280;44845;51.444;7.460;2023-02-13T00:17:33;101843.59;;;8.22;75.22
59055;BME280;44845;51.444;7.460;2023-02-13T00:19:58;101840.03;;;8.20;75.38
59055;BME280;44845;51.444;7.460;2023-02-13T00:22:24;101833.13;;;8.22;75.20
59055;BME280;44845;51.444;7.460;2023-02-13T00:24:50;101827.28;;;8.30;75.42
59055;BME280;44845;51.444;7.460;2023-02-13T00:27:15;101829.66;;;8.23;75.25
59055;BME280;44845;51.444;7.460;2023-02-13T00:29:41;101822.97;;;8.32;75.38
59055;BME280;44845;51.444;7.460;2023-02-13T00:32:06;101829.88;;;8.30;75.42
59055;BME280;44845;51.444;7.460;2023-02-13T00:34:31;101829.81;;;8.28;75.70
59055;BME280;44845;51.444;7.460;2023-02-13T00:36:57;101832.59;;;8.33;75.99
59055;BME280;44845;51.444;7.460;2023-02-13T00:39:22;101827.19;;;8.28;75.76
59055;BME280;44845;51.444;7.460;2023-02-13T00:41:48;101826.22;;;8.25;75.97
59055;BME280;44845;51.444;7.460;2023-02-13T00:44:13;101820.88;;;8.21;76.07
59055;BME280;44845;51.444;7.460;2023-02-13T00:46:38;101825.19;;;8.19;76.07
59055;BME280;44845;51.444;7.460;2023-02-13T00:49:04;101813.03;;;8.21;76.02
59055;BME280;44845;51.444;7.460;2023-02-13T00:51:30;101813.78;;;8.17;76.12
59055;BME280;44845;51.444;7.460;2023-02-13T00:53:55;101816.41;;;8.17;76.01
59055;BME280;44845;51.444;7.460;2023-02-13T00:56:21;101815.47;;;8.15;75.87
59055;BME280;44845;51.444;7.460;2023-02-13T00:58:46;101812.00;;;8.16;76.13
59055;BME280;44845;51.444;7.460;2023-02-13T01:01:11;101811.94;;;8.15;76.04
59055;BME280;44845;51.444;7.460;2023-02-13T01:03:39;101815.47;;;8.15;76.06
59055;BME280;44845;51.444;7.460;2023-02-13T01:06:05;101822.44;;;8.16;76.17
59055;BME280;44845;51.444;7.460;2023-02-13T01:08:31;101819.75;;;8.13;76.15
59055;BME280;44845;51.444;7.460;2023-02-13T01:10:56;101824.13;;;8.14;76.13
59055;BME280;44845;51.444;7.460;2023-02-13T01:13:22;101824.13;;;8.14;76.05
59055;BME280;44845;51.444;7.460;2023-02-13T01:15:48;101827.47;;;8.10;76.22
59055;BME280;44845;51.444;7.460;2023-02-13T01:18:14;101824.13;;;8.14;75.94
59055;BME280;44845;51.444;7.460;2023-02-13T01:20:41;101825.91;;;8.15;75.73
59055;BME280;44845;51.444;7.460;2023-02-13T01:23:08;101829.50;;;8.19;75.74
59055;BME280;44845;51.444;7.460;2023-02-13T01:25:33;101826.03;;;8.18;75.71
59055;BME280;44845;51.444;7.460;2023-02-13T01:27:59;101827.69;;;8.16;75.79
59055;BME280;44845;51.444;7.460;2023-02-13T01:30:24;101818.22;;;8.20;75.43
59055;BME280;44845;51.444;7.460;2023-02-13T01:32:49;101813.03;;;8.21;75.24
59055;BME280;44845;51.444;7.460;2023-02-13T01:35:15;101821.66;;;8.19;75.36
59055;BME280;44845;51.444;7.460;2023-02-13T01:37:40;101818.28;;;8.21;75.58
59055;BME280;44845;51.444;7.460;2023-02-13T01:40:09;101812.88;;;8.17;75.64
59055;BME280;44845;51.444;7.460;2023-02-13T01:42:35;101813.78;;;8.17;75.68
59055;BME280;44845;51.444;7.460;2023-02-13T01:45:04;101813.91;;;8.20;75.50
59055;BME280;44845;51.444;7.460;2023-02-13T01:47:39;101820.00;;;8.21;75.24
59055;BME280;44845;51.444;7.460;2023-02-13T01:50:10;101819.06;;;8.19;75.20
59055;BME280;44845;51.444;7.460;2023-02-13T01:52:39;101818.19;;;8.18;75.17
59055;BME280;44845;51.444;7.460;2023-02-13T01:55:08;101817.28;;;8.18;75.13
59055;BME280;44845;51.444;7.460;2023-02-13T01:57:34;101810.22;;;8.15;75.07
59055;BME280;44845;51.444;7.460;2023-02-13T02:00:06;101813.75;;;8.16;75.20
59055;BME280;44845;51.444;7.460;2023-02-13T02:02:36;101813.78;;;8.17;75.29
59055;BME280;44845;51.444;7.460;2023-02-13T02:05:05;101812.88;;;8.17;75.37
59055;BME280;44845;51.444;7.460;2023-02-13T02:07:31;101803.28;;;8.16;75.40
59055;BME280;44845;51.444;7.460;2023-02-13T02:10:04;101808.44;;;8.14;75.38
59055;BME280;44845;51.444;7.460;2023-02-13T02:12:52;101800.72;;;8.17;75.29
59055;BME280;44845;51.444;7.460;2023-02-13T02:15:20;101798.84;;;8.13;75.21
59055;BME280;44845;51.444;7.460;2023-02-13T02:17:45;101799.72;;;8.14;75.21
59055;BME280;44845;51.444;7.460;2023-02-13T02:22:50;101799.66;;;8.12;75.31
59055;BME280;44845;51.444;7.460;2023-02-13T02:25:56;101797.91;;;8.11;75.69
59055;BME280;44845;51.444;7.460;2023-02-13T02:29:10;101795.28;;;8.11;75.43
59055;BME280;44845;51.444;7.460;2023-02-13T02:37:10;101799.63;;;8.10;74.85
59055;BME280;44845;51.444;7.460;2023-02-13T02:42:53;101802.25;;;8.10;74.44
59055;BME280;44845;51.444;7.460;2023-02-13T02:47:59;101799.78;;;8.15;74.16
59055;BME280;44845;51.444;7.460;2023-02-13T02:50:52;101794.44;;;8.12;74.17
59055;BME280;44845;51.444;7.460;2023-02-13T02:56:13;101794.34;;;8.09;74.34
59055;BME280;44845;51.444;7.460;2023-02-13T02:58:52;101789.88;;;8.06;74.38
59055;BME280;44845;51.444;7.460;2023-02-13T03:01:38;101784.56;;;8.03;74.04
59055;BME280;44845;51.444;7.460;2023-02-13T03:07:14;101785.25;;;7.97;73.99
59055;BME280;44845;51.444;7.460;2023-02-13T03:09:42;101788.91;;;8.03;73.96
59055;BME280;44845;51.444;7.460;2023-02-13T03:12:44;101796.63;;;7.99;73.99
59055;BME280;44845;51.444;7.460;2023-02-13T03:15:29;101790.47;;;7.97;74.09
59055;BME280;44845;51.444;7.460;2023-02-13T03:17:56;101785.25;;;7.97;73.71
59055;BME280;44845;51.444;7.460;2023-02-13T03:20:54;101791.28;;;7.96;73.87
59055;BME280;44845;51.444;7.460;2023-02-13T03:23:56;101780.03;;;7.97;73.65
59055;BME280;44845;51.444;7.460;2023-02-13T03:26:32;101786.00;;;7.93;73.56
59055;BME280;44845;51.444;7.460;2023-02-13T03:32:24;101791.09;;;7.90;73.06
59055;BME280;44845;51.444;7.460;2023-02-13T03:35:00;101792.03;;;7.92;73.50
59055;BME280;44845;51.444;7.460;2023-02-13T03:37:49;101791.22;;;7.93;73.46
59055;BME280;44845;51.444;7.460;2023-02-13T03:43:10;101794.53;;;7.89;73.66
59055;BME280;44845;51.444;7.460;2023-02-13T03:45:41;101796.31;;;7.90;73.30
59055;BME280;44845;51.444;7.460;2023-02-13T03:48:38;101799.13;;;7.96;73.34
59055;BME280;44845;51.444;7.460;2023-02-13T03:51:41;101802.47;;;7.92;73.25
59055;BME280;44845;51.444;7.460;2023-02-13T03:57:19;101799.94;;;7.94;73.52
59055;BME280;44845;51.444;7.460;2023-02-13T04:00:07;101798.13;;;7.91;73.63
59055;BME280;44845;51.444;7.460;2023-02-13T04:02:47;101805.84;;;7.88;73.75
59055;BME280;44845;51.444;7.460;2023-02-13T04:05:19;101804.03;;;7.87;73.95
59055;BME280;44845;51.444;7.460;2023-02-13T04:07:45;101816.16;;;7.85;73.92
59055;BME280;44845;51.444;7.460;2023-02-13T04:10:13;101817.09;;;7.87;74.09
59055;BME280;44845;51.444;7.460;2023-02-13T04:13:08;101809.44;;;7.92;73.96
59055;BME280;44845;51.444;7.460;2023-02-13T04:15:54;101809.38;;;7.90;73.97
59055;BME280;44845;51.444;7.460;2023-02-13T04:18:29;101804.97;;;7.89;74.07
59055;BME280;44845;51.444;7.460;2023-02-13T04:20:55;101806.66;;;7.87;74.19
59055;BME280;44845;51.444;7.460;2023-02-13T04:23:21;101803.22;;;7.88;74.22
59055;BME280;44845;51.444;7.460;2023-02-13T04:25:49;101805.84;;;7.88;74.09
59055;BME280;44845;51.444;7.460;2023-02-13T04:28:16;101804.13;;;7.88;73.68
59055;BME280;44845;51.444;7.460;2023-02-13T04:30:41;101797.16;;;7.89;74.03
59055;BME280;44845;51.444;7.460;2023-02-13T04:33:07;101795.50;;;7.91;74.08
59055;BME280;44845;51.444;7.460;2023-02-13T04:35:32;101796.44;;;7.93;74.21
59055;BME280;44845;51.444;7.460;2023-02-13T04:37:59;101799.84;;;7.91;74.36
59055;BME280;44845;51.444;7.460;2023-02-13T04:40:24;101797.16;;;7.89;74.50
59055;BME280;44845;51.444;7.460;2023-02-13T04:42:50;101800.50;;;7.85;74.63
59055;BME280;44845;51.444;7.460;2023-02-13T04:45:15;101796.31;;;7.90;74.39
59055;BME280;44845;51.444;7.460;2023-02-13T04:47:41;101791.06;;;7.88;74.35
59055;BME280;44845;51.444;7.460;2023-02-13T04:50:07;101798.13;;;7.91;73.90
59055;BME280;44845;51.444;7.460;2023-02-13T04:52:32;101788.50;;;7.90;74.30
59055;BME280;44845;51.444;7.460;2023-02-13T04:54:58;101787.56;;;7.88;74.55
59055;BME280;44845;51.444;7.460;2023-02-13T04:57:23;101787.66;;;7.91;74.46
59055;BME280;44845;51.444;7.460;2023-02-13T04:59:48;101783.31;;;7.92;74.65
59055;BME280;44845;51.444;7.460;2023-02-13T05:02:14;101781.38;;;7.86;74.30
59055;BME280;44845;51.444;7.460;2023-02-13T05:04:39;101792.03;;;7.92;74.45
59055;BME280;44845;51.444;7.460;2023-02-13T05:07:04;101786.38;;;7.80;74.53
59055;BME280;44845;51.444;7.460;2023-02-13T05:09:30;101780.53;;;7.87;74.65
59055;BME280;44845;51.444;7.460;2023-02-13T05:11:55;101788.50;;;7.90;74.46
59055;BME280;44845;51.444;7.460;2023-02-13T05:14:20;101788.50;;;7.90;74.20
59055;BME280;44845;51.444;7.460;2023-02-13T05:16:46;101786.69;;;7.89;74.32
59055;BME280;44845;51.444;7.460;2023-02-13T05:19:12;101792.94;;;7.93;74.24
59055;BME280;44845;51.444;7.460;2023-02-13T05:21:37;101793.72;;;7.90;74.28
59055;BME280;44845;51.444;7.460;2023-02-13T05:24:21;101795.50;;;7.91;74.01
59055;BME280;44845;51.444;7.460;2023-02-13T05:26:46;101795.38;;;7.88;73.98
59055;BME280;44845;51.444;7.460;2023-02-13T05:29:12;101787.56;;;7.88;74.01
59055;BME280;44845;51.444;7.460;2023-02-13T05:31:50;101790.16;;;7.88;74.22
59055;BME280;44845;51.444;7.460;2023-02-13T05:34:17;101779.72;;;7.88;73.74
59055;BME280;44845;51.444;7.460;2023-02-13T05:36:43;101782.31;;;7.88;73.73
59055;BME280;44845;51.444;7.460;2023-02-13T05:39:08;101779.56;;;7.83;73.61
59055;BME280;44845;51.444;7.460;2023-02-13T05:41:34;101780.38;;;7.82;73.45
59055;BME280;44845;51.444;7.460;2023-02-13T05:43:59;101778.63;;;7.81;73.58
59055;BME280;44845;51.444;7.460;2023-02-13T05:46:25;101773.28;;;7.78;73.39
59055;BME280;44845;51.444;7.460;2023-02-13T05:48:51;101770.50;;;7.73;73.39
59055;BME280;44845;51.444;7.460;2023-02-13T05:51:17;101773.00;;;7.70;73.33
59055;BME280;44845;51.444;7.460;2023-02-13T05:53:43;101766.84;;;7.68;73.38
59055;BME280;44845;51.444;7.460;2023-02-13T05:56:08;101771.06;;;7.64;73.46
59055;BME280;44845;51.444;7.460;2023-02-13T05:58:35;101774.47;;;7.62;73.70
59055;BME280;44845;51.444;7.460;2023-02-13T06:01:00;101771.75;;;7.59;73.40
59055;BME280;44845;51.444;7.460;2023-02-13T06:03:27;101769.88;;;7.54;73.50
59055;BME280;44845;51.444;7.460;2023-02-13T06:05:53;101773.06;;;7.47;73.47
59055;BME280;44845;51.444;7.460;2023-02-13T06:08:19;101774.66;;;7.42;73.49
59055;BME280;44845;51.444;7.460;2023-02-13T06:10:46;101784.81;;;7.34;73.55
59055;BME280;44845;51.444;7.460;2023-02-13T06:13:11;101787.28;;;7.31;74.12
59055;BME280;44845;51.444;7.460;2023-02-13T06:15:37;101777.63;;;7.28;73.97
59055;BME280;44845;51.444;7.460;2023-02-13T06:18:02;101778.34;;;7.24;73.82
59055;BME280;44845;51.444;7.460;2023-02-13T06:20:28;101779.09;;;7.20;73.72
59055;BME280;44845;51.444;7.460;2023-02-13T06:22:53;101786.66;;;7.14;73.95
59055;BME280;44845;51.444;7.460;2023-02-13T06:25:19;101788.94;;;7.04;73.92
59055;BME280;44845;51.444;7.460;2023-02-13T06:27:45;101784.34;;;6.98;73.77
59055;BME280;44845;51.444;7.460;2023-02-13T06:30:11;101778.06;;;6.93;73.64
59055;BME280;44845;51.444;7.460;2023-02-13T06:32:36;101786.44;;;6.84;73.99
59055;BME280;44845;51.444;7.460;2023-02-13T06:35:02;101789.78;;;6.80;73.98
59055;BME280;44845;51.444;7.460;2023-02-13T06:37:27;101787.97;;;6.79;74.15
59055;BME280;44845;51.444;7.460;2023-02-13T06:39:52;101785.25;;;6.76;74.22
59055;BME280;44845;51.444;7.460;2023-02-13T06:42:18;101786.81;;;6.71;73.87
59055;BME280;44845;51.444;7.460;2023-02-13T06:44:43;101782.34;;;6.68;73.84
59055;BME280;44845;51.444;7.460;2023-02-13T06:47:09;101784.84;;;6.65;73.82
59055;BME280;44845;51.444;7.460;2023-02-13T06:49:34;101788.94;;;6.58;74.28
59055;BME280;44845;51.444;7.460;2023-02-13T06:52:00;101789.56;;;6.52;74.67
59055;BME280;44845;51.444;7.460;2023-02-13T06:54:25;101793.88;;;6.52;74.33
59055;BME280;44845;51.444;7.460;2023-02-13T06:56:50;101789.44;;;6.49;74.50
59055;BME280;44845;51.444;7.460;2023-02-13T06:59:16;101788.44;;;6.46;74.75
59055;BME280;44845;51.444;7.460;2023-02-13T07:01:41;101789.19;;;6.43;74.52
59055;BME280;44845;51.444;7.460;2023-02-13T07:04:07;101786.44;;;6.40;74.32
59055;BME280;44845;51.444;7.460;2023-02-13T07:06:32;101786.41;;;6.38;74.39
59055;BME280;44845;51.444;7.460;2023-02-13T07:08:57;101791.53;;;6.37;74.59
59055;BME280;44845;51.444;7.460;2023-02-13T07:11:24;101801.00;;;6.35;74.64
59055;BME280;44845;51.444;7.460;2023-02-13T07:13:49;101796.56;;;6.32;74.69
59055;BME280;44845;51.444;7.460;2023-02-13T07:16:15;101800.00;;;6.31;74.73
59055;BME280;44845;51.444;7.460;2023-02-13T07:18:40;101798.22;;;6.30;74.83
59055;BME280;44845;51.444;7.460;2023-02-13T07:21:06;101798.03;;;6.25;74.68
59055;BME280;44845;51.444;7.460;2023-02-13T07:23:32;101795.47;;;6.27;75.03
59055;BME280;44845;51.444;7.460;2023-02-13T07:25:58;101798.06;;;6.27;74.85
59055;BME280;44845;51.444;7.460;2023-02-13T07:28:24;101796.31;;;6.26;74.71
59055;BME280;44845;51.444;7.460;2023-02-13T07:30:49;101795.56;;;6.28;74.85
59055;BME280;44845;51.444;7.460;2023-02-13T07:33:15;101799.94;;;6.29;74.76
59055;BME280;44845;51.444;7.460;2023-02-13T07:35:48;101798.97;;;6.27;75.08
59055;BME280;44845;51.444;7.460;2023-02-13T07:38:14;101796.75;;;6.15;75.27
59055;BME280;44845;51.444;7.460;2023-02-13T07:40:39;101808.25;;;6.21;75.01
59055;BME280;44845;51.444;7.460;2023-02-13T07:43:05;101804.72;;;6.18;75.10
59055;BME280;44845;51.444;7.460;2023-02-13T07:45:30;101800.50;;;6.22;75.14
59055;BME280;44845;51.444;7.460;2023-02-13T07:47:56;101806.38;;;6.16;75.45
59055;BME280;44845;51.444;7.460;2023-02-13T07:50:21;101808.25;;;6.21;75.47
59055;BME280;44845;51.444;7.460;2023-02-13T07:52:54;101801.00;;;6.13;75.40
59055;BME280;44845;51.444;7.460;2023-02-13T07:55:20;101814.38;;;6.21;75.39
59055;BME280;44845;51.444;7.460;2023-02-13T07:57:45;101814.41;;;6.23;75.42
59055;BME280;44845;51.444;7.460;2023-02-13T08:00:11;101824.13;;;6.27;75.31
59055;BME280;44845;51.444;7.460;2023-02-13T08:02:37;101822.38;;;6.26;75.59
59055;BME280;44845;51.444;7.460;2023-02-13T08:05:02;101816.41;;;6.28;75.94
59055;BME280;44845;51.444;7.460;2023-02-13T08:07:28;101824.97;;;6.26;76.02
59055;BME280;44845;51.444;7.460;2023-02-13T08:09:53;101826.06;;;6.31;76.20
59055;BME280;44845;51.444;7.460;2023-02-13T08:12:37;101822.50;;;6.29;76.20
59055;BME280;44845;51.444;7.460;2023-02-13T08:15:05;101827.16;;;6.36;76.28
59055;BME280;44845;51.444;7.460;2023-02-13T08:17:31;101827.97;;;6.35;76.37
59055;BME280;44845;51.444;7.460;2023-02-13T08:19:57;101826.69;;;6.47;76.64
59055;BME280;44845;51.444;7.460;2023-02-13T08:22:22;101826.00;;;6.51;76.81
59055;BME280;44845;51.444;7.460;2023-02-13T08:24:47;101830.50;;;6.55;76.52
59055;BME280;44845;51.444;7.460;2023-02-13T08:27:13;101829.94;;;6.62;76.47
59055;BME280;44845;51.444;7.460;2023-02-13T08:29:39;101825.53;;;6.61;76.32
59055;BME280;44845;51.444;7.460;2023-02-13T08:32:04;101829.47;;;6.73;75.94
59055;BME280;44845;51.444;7.460;2023-02-13T08:34:30;101828.81;;;6.79;75.77
59055;BME280;44845;51.444;7.460;2023-02-13T08:36:55;101826.66;;;6.90;75.81
59055;BME280;44845;51.444;7.460;2023-02-13T08:39:20;101830.19;;;6.92;75.66
59055;BME280;44845;51.444;7.460;2023-02-13T08:41:46;101830.00;;;6.87;76.23
59055;BME280;44845;51.444;7.460;2023-02-13T08:44:11;101827.72;;;6.95;75.71
59055;BME280;44845;51.444;7.460;2023-02-13T08:46:36;101828.41;;;6.91;75.70
59055;BME280;44845;51.444;7.460;2023-02-13T08:49:02;101826.88;;;6.96;75.90
59055;BME280;44845;51.444;7.460;2023-02-13T08:51:27;101825.34;;;7.01;75.80
59055;BME280;44845;51.444;7.460;2023-02-13T08:53:53;101823.31;;;6.94;75.84
59055;BME280;44845;51.444;7.460;2023-02-13T08:56:18;101827.03;;;7.01;75.97
59055;BME280;44845;51.444;7.460;2023-02-13T08:58:46;101825.34;;;7.01;75.53
59055;BME280;44845;51.444;7.460;2023-02-13T09:01:11;101826.28;;;7.03;75.31
59055;BME280;44845;51.444;7.460;2023-02-13T09:03:37;101824.03;;;7.13;75.59
59055;BME280;44845;51.444;7.460;2023-02-13T09:06:02;101825.00;;;7.15;74.86
59055;BME280;44845;51.444;7.460;2023-02-13T09:08:28;101825.22;;;7.21;75.38
59055;BME280;44845;51.444;7.460;2023-02-13T09:11:01;101825.56;;;7.30;75.32
59055;BME280;44845;51.444;7.460;2023-02-13T09:13:31;101815.63;;;7.20;74.63
59055;BME280;44845;51.444;7.460;2023-02-13T09:16:02;101814.16;;;7.28;75.01
59055;BME280;44845;51.444;7.460;2023-02-13T09:18:28;101815.41;;;7.38;74.96
59055;BME280;44845;51.444;7.460;2023-02-13T09:21:05;101812.75;;;7.37;74.50
59055;BME280;44845;51.444;7.460;2023-02-13T09:23:32;101814.13;;;7.51;74.60
59055;BME280;44845;51.444;7.460;2023-02-13T09:26:01;101809.63;;;7.47;74.58
59055;BME280;44845;51.444;7.460;2023-02-13T09:28:29;101809.75;;;7.50;74.78
59055;BME280;44845;51.444;7.460;2023-02-13T09:30:55;101809.75;;;7.50;74.87
59055;BME280;44845;51.444;7.460;2023-02-13T09:33:20;101806.31;;;7.51;74.41
59055;BME280;44845;51.444;7.460;2023-02-13T09:35:46;101811.53;;;7.51;74.32
59055;BME280;44845;51.444;7.460;2023-02-13T09:38:11;101808.06;;;7.52;73.46
59055;BME280;44845;51.444;7.460;2023-02-13T09:40:59;101811.09;;;7.63;72.73
59055;BME280;44845;51.444;7.460;2023-02-13T09:43:30;101810.19;;;7.63;72.58
59055;BME280;44845;51.444;7.460;2023-02-13T09:46:06;101810.13;;;7.61;72.78
59055;BME280;44845;51.444;7.460;2023-02-13T09:48:36;101812.22;;;7.72;71.98
59055;BME280;44845;51.444;7.460;2023-02-13T09:51:04;101813.06;;;7.71;72.42
59055;BME280;44845;51.444;7.460;2023-02-13T09:53:29;101813.56;;;7.85;72.20
59055;BME280;44845;51.444;7.460;2023-02-13T09:58:39;101809.66;;;7.98;71.52
59055;BME280;44845;51.444;7.460;2023-02-13T10:01:25;101811.50;;;8.00;71.19
59055;BME280;44845;51.444;7.460;2023-02-13T10:04:15;101814.94;;;7.99;71.43
59055;BME280;44845;51.444;7.460;2023-02-13T10:06:49;101816.84;;;8.04;71.12
59055;BME280;44845;51.444;7.460;2023-02-13T10:09:51;101815.25;;;8.09;71.07
59055;BME280;44845;51.444;7.460;2023-02-13T10:12:27;101817.13;;;8.13;70.37
59055;BME280;44845;51.444;7.460;2023-02-13T10:17:41;101819.94;;;8.19;69.24
59055;BME280;44845;51.444;7.460;2023-02-13T10:22:45;101819.44;;;8.30;70.26
59055;BME280;44845;51.444;7.460;2023-02-13T10:25:18;101818.75;;;8.36;69.30
59055;BME280;44845;51.444;7.460;2023-02-13T10:28:10;101826.78;;;8.42;69.53
59055;BME280;44845;51.444;7.460;2023-02-13T10:30:49;101822.22;;;8.36;69.42
59055;BME280;44845;51.444;7.460;2023-02-13T10:33:30;101821.56;;;8.42;69.51
59055;BME280;44845;51.444;7.460;2023-02-13T10:38:37;101818.44;;;8.54;70.38
59055;BME280;44845;51.444;7.460;2023-02-13T10:41:23;101817.56;;;8.53;70.16
59055;BME280;44845;51.444;7.460;2023-02-13T10:44:08;101820.88;;;8.48;68.92
59055;BME280;44845;51.444;7.460;2023-02-13T10:58:19;101805.16;;;8.74;68.41
59055;BME280;44845;51.444;7.460;2023-02-13T11:03:31;101801.59;;;8.72;67.83
59055;BME280;44845;51.444;7.460;2023-02-13T11:05:58;101788.63;;;8.75;67.33
59055;BME280;44845;51.444;7.460;2023-02-13T11:08:27;101786.09;;;8.78;67.63
59055;BME280;44845;51.444;7.460;2023-02-13T11:10:54;101781.59;;;8.74;67.12
59055;BME280;44845;51.444;7.460;2023-02-13T11:13:24;101785.41;;;8.84;67.50
59055;BME280;44845;51.444;7.460;2023-02-13T11:15:56;101788.03;;;8.85;68.13
59055;BME280;44845;51.444;7.460;2023-02-13T11:18:22;101781.22;;;8.90;68.82
59055;BME280;44845;51.444;7.460;2023-02-13T11:21:02;101786.34;;;8.87;67.07
59055;BME280;44845;51.444;7.460;2023-02-13T11:26:00;101772.84;;;9.03;66.55
59055;BME280;44845;51.444;7.460;2023-02-13T11:28:28;101773.84;;;9.06;66.23
59055;BME280;44845;51.444;7.460;2023-02-13T11:31:09;101767.75;;;9.07;66.14
59055;BME280;44845;51.444;7.460;2023-02-13T11:33:35;101771.13;;;9.03;66.56
59055;BME280;44845;51.444;7.460;2023-02-13T11:36:06;101770.44;;;9.09;66.49
59055;BME280;44845;51.444;7.460;2023-02-13T11:38:32;101766.25;;;9.16;66.21
59055;BME280;44845;51.444;7.460;2023-02-13T11:41:14;101761.28;;;9.25;65.99
59055;BME280;44845;51.444;7.460;2023-02-13T11:43:46;101756.94;;;9.26;64.97
59055;BME280;44845;51.444;7.460;2023-02-13T11:46:19;101758.91;;;9.34;65.50
59055;BME280;44845;51.444;7.460;2023-02-13T11:49:03;101756.38;;;9.38;65.88
59055;BME280;44845;51.444;7.460;2023-02-13T11:51:45;101754.13;;;9.50;65.83
59055;BME280;44845;51.444;7.460;2023-02-13T11:54:38;101755.56;;;9.39;66.46
59055;BME280;44845;51.444;7.460;2023-02-13T11:59:49;101745.16;;;9.42;66.66
59055;BME280;44845;51.444;7.460;2023-02-13T12:05:23;101744.69;;;9.57;65.88
59055;BME280;44845;51.444;7.460;2023-02-13T12:07:48;101741.16;;;9.56;66.05
59055;BME280;44845;51.444;7.460;2023-02-13T12:15:36;101737.72;;;9.57;66.84
59055;BME280;44845;51.444;7.460;2023-02-13T12:31:18;101703.66;;;9.93;65.81
59055;BME280;44845;51.444;7.460;2023-02-13T12:34:10;101698.41;;;9.93;66.02
59055;BME280;44845;51.444;7.460;2023-02-13T12:37:15;101696.09;;;10.06;65.19
59055;BME280;44845;51.444;7.460;2023-02-13T12:42:37;101683.97;;;10.09;65.84
59055;BME280;44845;51.444;7.460;2023-02-13T12:45:26;101686.47;;;10.05;66.56
59055;BME280;44845;51.444;7.460;2023-02-13T12:50:36;101681.56;;;10.20;66.01
59055;BME280;44845;51.444;7.460;2023-02-13T12:58:56;101675.50;;;10.21;64.87
59055;BME280;44845;51.444;7.460;2023-02-13T13:06:40;101662.56;;;10.29;65.76
59055;BME280;44845;51.444;7.460;2023-02-13T13:09:18;101666.19;;;10.36;65.69
59055;BME280;44845;51.444;7.460;2023-02-13T13:12:09;101667.75;;;10.28;65.84
59055;BME280;44845;51.444;7.460;2023-02-13T13:14:52;101664.59;;;10.43;65.83
59055;BME280;44845;51.444;7.460;2023-02-13T13:22:52;101659.25;;;10.38;66.02
59055;BME280;44845;51.444;7.460;2023-02-13T13:25:35;101663.56;;;10.34;66.15
59055;BME280;44845;51.444;7.460;2023-02-13T13:28:10;101661.78;;;10.35;65.89
59055;BME280;44845;51.444;7.460;2023-02-13T13:30:38;101655.59;;;10.30;66.44
59055;BME280;44845;51.444;7.460;2023-02-13T13:33:16;101653.94;;;10.35;65.61
59055;BME280;44845;51.444;7.460;2023-02-13T13:35:52;101654.00;;;10.38;65.85
59055;BME280;44845;51.444;7.460;2023-02-13T13:41:37;101648.31;;;10.56;65.47
59055;BME280;44845;51.444;7.460;2023-02-13T13:49:33;101635.88;;;10.49;65.67
59055;BME280;44845;51.444;7.460;2023-02-13T13:52:30;101633.16;;;10.44;66.33
59055;BME280;44845;51.444;7.460;2023-02-13T13:54:58;101640.97;;;10.41;66.51
59055;BME280;44845;51.444;7.460;2023-02-13T13:57:25;101640.25;;;10.48;66.26
59055;BME280;44845;51.444;7.460;2023-02-13T13:59:55;101643.00;;;10.53;66.21
59055;BME280;44845;51.444;7.460;2023-02-13T14:25:46;101633.31;;;10.51;66.78
59055;BME280;44845;51.444;7.460;2023-02-13T14:28:24;101627.13;;;10.48;67.08
59055;BME280;44845;51.444;7.460;2023-02-13T14:30:52;101627.97;;;10.47;66.79
59055;BME280;44845;51.444;7.460;2023-02-13T14:33:30;101626.03;;;10.37;67.53
59055;BME280;44845;51.444;7.460;2023-02-13T14:36:02;101623.25;;;10.31;68.23
59055;BME280;44845;51.444;7.460;2023-02-13T14:38:29;101625.06;;;10.35;68.25
59055;BME280;44845;51.444;7.460;2023-02-13T14:40:54;101630.31;;;10.35;68.30
59055;BME280;44845;51.444;7.460;2023-02-13T14:46:26;101615.56;;;10.40;68.76
59055;BME280;44845;51.444;7.460;2023-02-13T14:49:10;101618.03;;;10.32;68.16
59055;BME280;44845;51.444;7.460;2023-02-13T14:51:39;101617.16;;;10.32;68.22
59055;BME280;44845;51.444;7.460;2023-02-13T14:57:20;101614.56;;;10.33;68.43
59055;BME280;44845;51.444;7.460;2023-02-13T14:59:50;101622.50;;;10.36;67.97
59055;BME280;44845;51.444;7.460;2023-02-13T15:02:29;101613.81;;;10.39;67.94
59055;BME280;44845;51.444;7.460;2023-02-13T15:04:59;101609.16;;;10.25;68.50
59055;BME280;44845;51.444;7.460;2023-02-13T15:07:34;101611.72;;;10.22;68.48
59055;BME280;44845;51.444;7.460;2023-02-13T15:10:05;101616.00;;;10.19;68.78
59055;BME280;44845;51.444;7.460;2023-02-13T15:12:33;101615.09;;;10.17;68.87
59055;BME280;44845;51.444;7.460;2023-02-13T15:14:59;101617.63;;;10.13;69.25
59055;BME280;44845;51.444;7.460;2023-02-13T15:17:28;101609.94;;;10.21;68.81
59055;BME280;44845;51.444;7.460;2023-02-13T15:20:03;101608.31;;;10.27;68.72
59055;BME280;44845;51.444;7.460;2023-02-13T15:22:31;101610.13;;;10.31;69.42
59055;BME280;44845;51.444;7.460;2023-02-13T15:24:57;101615.28;;;10.26;68.63
59055;BME280;44845;51.444;7.460;2023-02-13T15:27:28;101610.84;;;10.23;68.60
59055;BME280;44845;51.444;7.460;2023-02-13T15:30:13;101604.78;;;10.26;68.60
59055;BME280;44845;51.444;7.460;2023-02-13T15:32:41;101604.78;;;10.26;68.68
59055;BME280;44845;51.444;7.460;2023-02-13T15:35:27;101602.19;;;10.28;68.71